Página principal
METAR-TAF:

METAR-TAF

Aeroportos :

Aeroporto do Porto Santo

Porto Santo, Portugal

latitude: 33-04N, longitude: 016-21W, altura: 97 m

Observação actual do tempo

O boletim foi feito há 12 minutos, às 12:30 UTC
Vento 9 kt de es-nordeste, variando entre nor-nordeste e este
Temperatura 24°C
Humidade 65%
Pressão 1022 hPa
Visibilidade 10 km ou mais
Poucas nuvensa uma altura de 1500 ft

METAR: LPPS 201230Z 06009KT 030V100 9999 FEW015 24/17 Q1022

Hora: 13:42 (12:42 UTC)

Previsão

O boletim foi feito há 1 hora e 42 minutos, às 11:00 UTC
Previsão válida de 20 às 12 UTC a 21 às 18 UTC
Vento 8 kt de nordeste
Visibilidade 10 km ou mais
Poucas nuvensa uma altura de 1500 ft
Nuvens fragmentadasa uma altura de 3000 ft
Temporariamente
de 20 às 12 UTC a 21 às 12 UTC
Nuvens fragmentadasa uma altura de 1300 ft
Tornando-se
de 20 às 17 UTC a 20 às 19 UTC
Vento 8 kt de norte

TAF: LPPS 201100Z 2012/2118 05008KT 9999 FEW015 BKN030 TEMPO 2012/2112 BKN013 BECMG 2017/2019 01008KT

Observações e previsões do tempo de mais de 4000 aeroportos (mensagens METAR e TAF).

As estações disponíveis são os pontos amarelos e vermelhos sobre o mapa.

Mova o rato sobre o mapa para ver o nome da estação.

Depois clique no ponto para visualizar as observações e previsões meteorológicas.

Para alterar o mapa : clique nos botões verdes com uma cruz preta para aumentar o zoom; no botão verde com uma pitada de zoom; ou nas setas verdes para mapas adjacentes.


METAR-TAF: